Time;durP1;ratioP1;P1;durP2;ratioP2;P2;SDS_P1;SDS_P2;PMS_P1;PMS_P2;Temp;Humidity;BMP_temperature;BMP_pressure;BME280_temperature;BME280_humidity;BME280_pressure;Samples;Min_cycle;Max_cycle;Signal;HPM_P1;HPM_P2
2021/06/24 00:01:40;;;;;;;3.30;3.10;;;;;;;18.82;96.92;96500.09;5074331;28;20185;-58
2021/06/24 00:04:05;;;;;;;3.93;3.63;;;;;;;18.73;98.51;96503.59;5090151;28;20296;-58
2021/06/24 00:06:31;;;;;;;4.97;4.43;;;;;;;18.56;100.00;96503.13;5074647;28;20182;-57
2021/06/24 00:08:56;;;;;;;4.80;4.50;;;;;;;18.46;100.00;96514.63;5074364;28;20169;-58
2021/06/24 00:11:21;;;;;;;6.00;5.50;;;;;;;18.37;100.00;96505.59;5074270;28;20621;-58
2021/06/24 00:13:47;;;;;;;5.70;5.20;;;;;;;18.44;100.00;96501.56;5076150;28;20187;-58
2021/06/24 00:16:13;;;;;;;6.50;6.00;;;;;;;18.60;100.00;96501.53;5074179;28;20179;-58
2021/06/24 00:18:39;;;;;;;6.93;6.30;;;;;;;18.53;100.00;96491.19;5074347;28;20175;-58
2021/06/24 00:21:05;;;;;;;6.90;6.40;;;;;;;18.48;100.00;96496.50;5074233;28;20171;-58
2021/06/24 00:23:31;;;;;;;7.67;7.07;;;;;;;18.51;100.00;96495.97;5086782;28;20216;-58
2021/06/24 00:25:56;;;;;;;8.60;7.97;;;;;;;18.31;100.00;96496.00;5094249;28;20405;-58
2021/06/24 00:28:26;;;;;;;8.53;7.93;;;;;;;18.13;100.00;96492.06;5094183;28;20193;-58
2021/06/24 00:30:51;;;;;;;9.27;8.40;;;;;;;18.30;100.00;96494.41;5094101;28;20198;-58
2021/06/24 00:33:17;;;;;;;9.40;8.60;;;;;;;18.32;100.00;96493.06;5081917;28;20485;-58
2021/06/24 00:35:43;;;;;;;9.07;8.20;;;;;;;18.25;100.00;96497.06;5088951;28;20173;-58
2021/06/24 00:38:09;;;;;;;8.43;7.83;;;;;;;18.19;100.00;96504.28;5094046;28;20555;-58
2021/06/24 00:40:36;;;;;;;8.83;8.13;;;;;;;18.22;100.00;96498.44;5094232;28;20404;-58
2021/06/24 00:43:04;;;;;;;8.93;8.27;;;;;;;18.09;100.00;96500.84;5093406;28;20173;-58
2021/06/24 00:45:30;;;;;;;7.13;6.57;;;;;;;18.04;100.00;96500.88;5082654;28;20814;-58
2021/06/24 00:47:55;;;;;;;8.60;7.70;;;;;;;18.07;100.00;96500.31;5079605;28;20422;-58
2021/06/24 00:50:21;;;;;;;7.30;6.80;;;;;;;18.22;100.00;96501.09;5093956;28;20181;-57
2021/06/24 00:52:46;;;;;;;7.03;6.43;;;;;;;18.18;100.00;96499.22;5088103;28;20175;-58
2021/06/24 00:55:12;;;;;;;6.30;5.90;;;;;;;18.17;100.00;96502.97;5073306;28;20237;-58
2021/06/24 00:57:37;;;;;;;5.80;5.40;;;;;;;18.20;100.00;96508.53;5092431;28;20528;-58
2021/06/24 01:00:05;;;;;;;6.77;5.33;;;;;;;18.22;100.00;96509.06;5093624;28;20440;-58
2021/06/24 01:02:31;;;;;;;5.20;4.73;;;;;;;18.41;100.00;96507.44;5093330;28;20169;-58
2021/06/24 01:04:56;;;;;;;6.00;4.30;;;;;;;18.46;100.00;96515.41;5083316;28;20471;-58
2021/06/24 01:07:23;;;;;;;4.70;4.40;;;;;;;18.34;100.00;96500.78;5073462;28;20170;-58
2021/06/24 01:09:48;;;;;;;4.23;3.83;;;;;;;18.40;100.00;96495.19;5073277;28;20232;-58
2021/06/24 01:12:14;;;;;;;3.83;3.53;;;;;;;18.22;100.00;96498.44;5072888;28;20408;-57
2021/06/24 01:14:39;;;;;;;3.87;3.67;;;;;;;18.21;100.00;96494.16;5073301;28;20711;-58
2021/06/24 01:17:06;;;;;;;3.83;3.63;;;;;;;18.30;100.00;96500.53;5082118;28;20248;-58
2021/06/24 01:19:31;;;;;;;3.53;3.33;;;;;;;18.52;100.00;96496.75;5091925;28;20582;-58
2021/06/24 01:21:59;;;;;;;3.23;3.03;;;;;;;18.18;100.00;96494.72;5093099;28;20499;-58
2021/06/24 01:24:24;;;;;;;3.00;2.90;;;;;;;18.28;100.00;96501.88;5093160;28;20193;-58
2021/06/24 01:26:49;;;;;;;4.70;3.13;;;;;;;18.16;100.00;96502.16;5093254;28;20419;-58
2021/06/24 01:29:15;;;;;;;3.03;2.83;;;;;;;18.37;100.00;96502.91;5093418;28;20189;-58
2021/06/24 01:31:41;;;;;;;2.87;2.67;;;;;;;18.32;100.00;96503.72;5077500;28;20653;-58
2021/06/24 01:34:08;;;;;;;2.70;2.60;;;;;;;18.16;100.00;96496.84;5073144;28;20424;-58
2021/06/24 01:36:35;;;;;;;3.10;2.80;;;;;;;18.36;100.00;96501.31;5073069;28;20613;-58
2021/06/24 01:39:01;;;;;;;2.50;2.40;;;;;;;18.62;98.98;96499.38;5072839;28;20470;-58
2021/06/24 01:41:26;;;;;;;3.00;2.80;;;;;;;18.58;98.29;96504.47;5054605;28;20859;-58
2021/06/24 01:43:52;;;;;;;3.03;2.83;;;;;;;18.67;97.71;96504.69;5072733;28;20488;-58
2021/06/24 01:46:17;;;;;;;2.60;2.40;;;;;;;18.48;99.05;96494.66;5085874;28;20186;-57
2021/06/24 01:48:43;;;;;;;2.63;2.43;;;;;;;18.77;98.58;96488.69;5086012;28;20215;-58
2021/06/24 01:51:09;;;;;;;3.00;2.80;;;;;;;19.01;97.59;96484.28;5097511;28;20170;-58
2021/06/24 01:53:35;;;;;;;2.80;2.60;;;;;;;19.21;96.92;96478.81;5097009;28;20190;-58
2021/06/24 01:56:00;;;;;;;3.30;2.60;;;;;;;19.18;95.64;96477.53;5097295;28;20404;-58
2021/06/24 01:58:27;;;;;;;2.80;2.60;;;;;;;19.30;95.39;96474.50;5097254;28;20196;-58
2021/06/24 02:00:57;;;;;;;2.40;2.30;;;;;;;19.30;96.41;96483.28;5078385;28;20181;-58
2021/06/24 02:03:25;;;;;;;3.17;2.97;;;;;;;19.47;96.32;96474.94;5077733;28;20855;-58
2021/06/24 02:05:54;;;;;;;2.87;2.50;;;;;;;19.62;95.86;96474.78;5077051;28;20460;-58
2021/06/24 02:08:23;;;;;;;3.33;3.13;;;;;;;19.74;95.49;96472.56;5076864;28;20523;-58
2021/06/24 02:10:49;;;;;;;3.10;2.90;;;;;;;19.76;95.34;96462.44;5076962;28;20408;-58
2021/06/24 02:13:14;;;;;;;2.93;2.60;;;;;;;19.85;95.02;96462.59;5076446;28;20926;-58
2021/06/24 02:15:40;;;;;;;4.57;2.93;;;;;;;19.74;95.83;96459.25;5088548;28;20432;-58
2021/06/24 02:18:06;;;;;;;3.00;2.80;;;;;;;19.71;96.33;96462.44;5097101;28;20196;-58
2021/06/24 02:20:31;;;;;;;2.90;2.60;;;;;;;19.81;95.87;96458.91;5097109;28;20167;-58
2021/06/24 02:22:57;;;;;;;3.00;2.80;;;;;;;19.77;95.82;96461.34;5096502;28;20253;-58
2021/06/24 02:25:22;;;;;;;2.93;2.73;;;;;;;19.80;95.05;96455.44;5096632;28;20717;-58
2021/06/24 02:27:48;;;;;;;3.73;3.10;;;;;;;19.90;94.69;96447.34;5097016;28;20519;-58
2021/06/24 02:30:15;;;;;;;3.13;2.87;;;;;;;19.91;94.36;96448.16;5086141;28;20228;-58
2021/06/24 02:32:40;;;;;;;3.40;3.10;;;;;;;19.96;93.88;96438.22;5076088;28;20185;-58
2021/06/24 02:35:09;;;;;;;3.70;3.37;;;;;;;19.97;94.14;96444.34;5058146;28;20433;-58
2021/06/24 02:37:35;;;;;;;3.80;3.50;;;;;;;19.76;93.77;96441.09;5076204;28;20183;-58
2021/06/24 02:40:02;;;;;;;3.80;3.20;;;;;;;19.79;94.41;96443.19;5075972;28;20467;-58
2021/06/24 02:42:28;;;;;;;3.07;2.87;;;;;;;19.87;93.99;96445.25;5041573;28;20192;-58
2021/06/24 02:44:53;;;;;;;3.33;3.13;;;;;;;19.96;93.58;96442.75;5084253;28;20834;-58
2021/06/24 02:47:19;;;;;;;3.60;2.70;;;;;;;19.77;93.06;96439.19;5076156;28;20276;-58
2021/06/24 02:49:44;;;;;;;3.40;3.20;;;;;;;19.78;93.52;96441.59;5075958;28;20536;-58
2021/06/24 02:52:09;;;;;;;3.20;3.00;;;;;;;19.72;93.46;96439.25;5057538;28;20201;-58
2021/06/24 02:54:35;;;;;;;3.57;3.37;;;;;;;19.68;93.73;96446.22;5075815;28;20195;-58
2021/06/24 02:57:01;;;;;;;3.40;3.20;;;;;;;19.61;93.66;96445.75;5075341;28;20178;-58
2021/06/24 02:59:27;;;;;;;3.10;2.90;;;;;;;19.47;94.67;96437.63;5077015;28;20175;-58
2021/06/24 03:01:53;;;;;;;3.43;3.13;;;;;;;19.23;95.74;96439.38;5095571;28;20181;-58
2021/06/24 03:04:22;;;;;;;3.43;3.13;;;;;;;19.19;95.80;96431.13;5092600;28;20461;-58
2021/06/24 03:06:49;;;;;;;3.13;2.93;;;;;;;18.99;96.26;96430.47;5078121;28;20201;-58
2021/06/24 03:09:15;;;;;;;2.97;2.67;;;;;;;19.09;95.83;96430.44;5077236;28;20462;-58
2021/06/24 03:11:40;;;;;;;3.80;3.00;;;;;;;19.08;94.73;96432.28;5095462;28;20508;-58
2021/06/24 03:14:06;;;;;;;6.60;3.10;;;;;;;19.08;94.98;96426.97;5095753;28;20178;-58
2021/06/24 03:16:31;;;;;;;2.97;2.77;;;;;;;19.06;94.72;96426.44;5089924;28;20187;-58
2021/06/24 03:18:57;;;;;;;2.77;2.57;;;;;;;19.12;94.39;96430.66;5075336;28;20613;-58
2021/06/24 03:21:22;;;;;;;2.90;2.70;;;;;;;19.12;94.70;96430.66;5075156;28;20224;-58
2021/06/24 03:23:48;;;;;;;3.07;2.77;;;;;;;19.12;94.23;96419.19;5056430;28;20201;-58
2021/06/24 03:26:13;;;;;;;2.90;2.70;;;;;;;19.22;93.92;96413.81;5075312;28;20171;-58
2021/06/24 03:28:39;;;;;;;2.80;2.60;;;;;;;19.24;93.46;96419.66;5075218;28;20162;-58
2021/06/24 03:31:04;;;;;;;2.93;2.73;;;;;;;19.27;93.21;96411.91;5078893;28;20170;-58
2021/06/24 03:33:30;;;;;;;3.00;2.80;;;;;;;19.37;93.18;96408.38;5076911;28;20608;-58
2021/06/24 03:35:56;;;;;;;3.03;2.83;;;;;;;19.36;93.09;96407.59;5095317;28;20162;-58
2021/06/24 03:38:21;;;;;;;2.83;2.67;;;;;;;19.32;93.82;96408.41;5060639;28;20217;-58
2021/06/24 03:40:47;;;;;;;3.10;2.80;;;;;;;19.27;93.86;96409.25;5095561;28;20171;-58
2021/06/24 03:43:12;;;;;;;3.40;3.10;;;;;;;19.30;93.48;96408.66;5094859;28;20189;-58
2021/06/24 03:45:39;;;;;;;3.37;3.17;;;;;;;19.35;93.68;96405.19;5092604;28;20240;-58
2021/06/24 03:48:05;;;;;;;3.47;3.27;;;;;;;19.29;93.59;96398.28;5074970;28;20210;-58
2021/06/24 03:50:31;;;;;;;2.90;2.70;;;;;;;19.34;94.10;96400.94;5074745;28;20413;-58
2021/06/24 03:52:56;;;;;;;2.80;2.57;;;;;;;19.40;94.05;96394.50;5074396;28;20424;-58
2021/06/24 03:55:35;;;;;;;3.47;3.17;;;;;;;19.51;93.72;96406.66;5088127;28;20189;-58
2021/06/24 03:58:04;;;;;;;3.00;2.80;;;;;;;19.59;94.17;96405.25;5095230;28;20162;-58
2021/06/24 04:00:31;;;;;;;3.93;3.03;;;;;;;19.70;93.38;96406.75;5094931;28;20457;-58
2021/06/24 04:02:56;;;;;;;3.37;3.17;;;;;;;19.56;91.94;96414.63;5077409;28;20903;-58
2021/06/24 04:05:21;;;;;;;2.90;2.73;;;;;;;19.56;91.92;96408.47;5074580;28;20468;-58
2021/06/24 04:07:47;;;;;;;2.80;2.50;;;;;;;19.42;91.72;96408.34;5074440;28;20171;-58
2021/06/24 04:10:13;;;;;;;4.43;3.40;;;;;;;19.15;93.58;96411.44;5074416;28;20170;-58
2021/06/24 04:12:38;;;;;;;3.10;2.87;;;;;;;18.99;94.46;96409.16;5074268;28;20170;-58
2021/06/24 04:15:05;;;;;;;3.00;2.90;;;;;;;18.92;95.46;96408.69;5074419;28;20186;-58
2021/06/24 04:17:30;;;;;;;3.73;3.20;;;;;;;19.05;95.13;96408.88;5083223;28;20191;-58
2021/06/24 04:19:55;;;;;;;3.27;2.97;;;;;;;19.20;94.54;96408.75;5083392;28;20417;-58
2021/06/24 04:22:21;;;;;;;3.13;2.93;;;;;;;19.37;93.54;96416.38;5094385;28;20170;-58
2021/06/24 04:24:46;;;;;;;3.33;3.13;;;;;;;19.49;93.79;96411.47;5094374;28;20652;-58
2021/06/24 04:27:11;;;;;;;4.23;3.10;;;;;;;19.46;95.36;96410.16;5094469;28;20257;-58
2021/06/24 04:29:37;;;;;;;3.10;2.90;;;;;;;19.40;95.65;96418.50;5094483;28;20636;-58
2021/06/24 04:32:02;;;;;;;3.20;3.00;;;;;;;19.43;95.40;96416.06;5090185;28;20234;-58
2021/06/24 04:34:28;;;;;;;3.33;3.13;;;;;;;19.38;95.61;96415.31;5076474;28;20225;-58
2021/06/24 04:36:53;;;;;;;3.30;3.00;;;;;;;19.53;95.58;96419.72;5074272;28;20617;-58
2021/06/24 04:39:19;;;;;;;3.40;3.20;;;;;;;19.63;95.02;96416.94;5074052;28;20663;-57
2021/06/24 04:41:44;;;;;;;3.50;3.30;;;;;;;19.58;95.57;96409.00;5073549;28;20167;-58
2021/06/24 04:44:09;;;;;;;3.80;3.47;;;;;;;19.67;95.82;96405.44;5075987;28;20245;-58
2021/06/24 04:46:35;;;;;;;3.67;3.40;;;;;;;19.72;94.66;96405.38;5094314;28;20206;-58
2021/06/24 04:49:00;;;;;;;4.23;3.10;;;;;;;19.63;93.98;96403.59;5078309;28;20551;-58
2021/06/24 04:51:26;;;;;;;4.17;3.00;;;;;;;19.49;94.23;96398.94;5084011;28;20174;-58
2021/06/24 04:53:51;;;;;;;4.27;3.87;;;;;;;19.36;95.42;96399.59;5093749;28;20186;-58
2021/06/24 04:56:16;;;;;;;3.20;2.90;;;;;;;19.48;94.31;96391.22;5093928;28;20217;-58
2021/06/24 04:58:42;;;;;;;3.70;3.50;;;;;;;19.39;94.76;96396.38;5093842;28;20587;-58
2021/06/24 05:01:07;;;;;;;3.80;3.37;;;;;;;19.46;94.50;96393.38;5094005;28;20269;-58
2021/06/24 05:03:33;;;;;;;4.30;3.60;;;;;;;19.46;94.75;96391.50;5086372;28;20199;-58
2021/06/24 05:05:58;;;;;;;3.67;3.40;;;;;;;19.38;95.40;96386.00;5074157;28;20206;-57
2021/06/24 05:08:27;;;;;;;3.87;3.47;;;;;;;19.40;94.93;96387.28;5093807;28;20636;-58
2021/06/24 05:10:52;;;;;;;3.60;3.40;;;;;;;19.56;94.97;96379.97;5093700;28;20170;-58
2021/06/24 05:13:18;;;;;;;3.60;3.30;;;;;;;19.68;94.67;96383.03;5093280;28;20434;-58
2021/06/24 05:15:44;;;;;;;3.77;3.47;;;;;;;19.70;94.46;96383.53;5093646;28;20176;-58
2021/06/24 05:18:13;;;;;;;3.50;3.20;;;;;;;19.83;94.74;96374.06;5093584;28;20273;-58
2021/06/24 05:20:39;;;;;;;3.90;3.43;;;;;;;19.93;94.48;96380.09;5090266;28;20413;-58
2021/06/24 05:23:07;;;;;;;3.30;3.00;;;;;;;19.93;93.69;96374.75;5088054;28;20462;-58
2021/06/24 05:25:32;;;;;;;3.57;3.33;;;;;;;20.01;94.15;96384.00;5074625;28;20456;-58
2021/06/24 05:27:57;;;;;;;5.17;3.67;;;;;;;20.09;93.85;96375.38;5073558;28;20827;-58
2021/06/24 05:30:23;;;;;;;4.03;3.53;;;;;;;20.01;93.58;96374.13;5062697;28;20170;-58
2021/06/24 05:32:48;;;;;;;4.23;3.90;;;;;;;20.02;93.94;96378.38;5093052;28;20254;-58
2021/06/24 05:35:14;;;;;;;4.30;3.90;;;;;;;20.08;93.06;96377.25;5093566;28;20251;-58
2021/06/24 05:37:39;;;;;;;4.63;4.33;;;;;;;20.16;93.32;96373.16;5093278;28;20631;-58
2021/06/24 05:40:05;;;;;;;4.50;4.20;;;;;;;20.17;92.99;96378.25;5093503;28;20253;-58
2021/06/24 05:42:31;;;;;;;3.27;3.07;;;;;;;20.02;93.41;96389.06;5092961;28;20174;-58
2021/06/24 05:44:56;;;;;;;4.60;4.30;;;;;;;20.04;93.33;96388.75;5087516;28;20468;-58
2021/06/24 05:47:22;;;;;;;3.90;3.67;;;;;;;20.12;94.02;96380.94;5073286;28;20317;-58
2021/06/24 05:49:47;;;;;;;4.13;3.80;;;;;;;20.11;93.89;96384.69;5073316;28;20175;-58
2021/06/24 05:52:13;;;;;;;3.97;3.70;;;;;;;20.23;93.82;96393.13;5072555;28;20574;-58
2021/06/24 05:54:38;;;;;;;5.20;4.70;;;;;;;20.32;94.01;96398.63;5073107;28;20199;-58
2021/06/24 05:57:04;;;;;;;4.40;4.10;;;;;;;20.41;93.47;96399.56;5073083;28;20175;-58
2021/06/24 05:59:29;;;;;;;4.30;4.00;;;;;;;20.46;93.14;96392.28;5075541;28;20195;-58
2021/06/24 06:01:55;;;;;;;4.60;4.30;;;;;;;20.57;93.25;96398.28;5072540;28;20171;-58
2021/06/24 06:04:20;;;;;;;4.77;4.37;;;;;;;20.53;93.09;96405.28;5073085;28;20669;-58
2021/06/24 06:06:46;;;;;;;5.80;4.53;;;;;;;20.61;92.65;96396.63;5054892;28;20261;-58
2021/06/24 06:09:12;;;;;;;4.80;4.50;;;;;;;20.60;93.25;96396.94;5072824;28;20170;-58
2021/06/24 06:11:38;;;;;;;5.67;5.27;;;;;;;20.74;92.42;96405.81;5072763;28;20303;-58
2021/06/24 06:14:03;;;;;;;5.60;5.20;;;;;;;20.77;90.42;96407.88;5075244;28;20951;-58
2021/06/24 06:16:29;;;;;;;5.20;4.70;;;;;;;20.86;88.85;96406.16;5092933;28;20253;-58
2021/06/24 06:18:55;;;;;;;4.30;4.10;;;;;;;20.81;89.69;96417.72;5090446;28;20171;-58
2021/06/24 06:21:21;;;;;;;4.87;4.57;;;;;;;20.86;90.08;96419.50;5072977;28;20175;-58
2021/06/24 06:23:47;;;;;;;5.40;5.00;;;;;;;20.92;90.15;96419.16;5072355;28;20429;-58
2021/06/24 06:26:12;;;;;;;4.77;4.47;;;;;;;21.02;89.47;96412.91;5072809;28;20477;-58
2021/06/24 06:28:37;;;;;;;4.90;4.60;;;;;;;21.12;89.15;96423.44;5072733;28;20171;-58
2021/06/24 06:31:03;;;;;;;4.67;4.37;;;;;;;21.03;89.33;96417.16;5072588;28;20587;-58
2021/06/24 06:33:29;;;;;;;5.03;4.63;;;;;;;21.19;89.46;96410.50;5083316;28;20194;-59
2021/06/24 06:35:54;;;;;;;4.33;4.03;;;;;;;21.36;89.76;96408.88;5086518;28;20166;-58
2021/06/24 06:38:20;;;;;;;4.77;4.47;;;;;;;21.40;89.31;96407.22;5096424;28;20185;-58
2021/06/24 06:40:46;;;;;;;4.30;3.90;;;;;;;21.37;89.33;96410.47;5096806;28;20174;-58
2021/06/24 06:43:15;;;;;;;4.70;4.40;;;;;;;21.43;89.48;96408.53;5096092;28;20473;-58
2021/06/24 06:45:40;;;;;;;5.27;4.93;;;;;;;21.42;89.89;96418.41;5096196;28;20654;-58
2021/06/24 06:48:05;;;;;;;4.53;3.87;;;;;;;21.61;88.99;96412.22;5096647;28;20469;-58
2021/06/24 06:50:31;;;;;;;4.60;4.30;;;;;;;21.72;87.63;96413.63;5087399;28;20231;-58
2021/06/24 06:52:57;;;;;;;4.30;3.80;;;;;;;21.77;87.26;96421.56;5075601;28;20733;-58
2021/06/24 06:55:28;;;;;;;5.10;4.40;;;;;;;21.70;87.07;96411.25;5076234;28;20166;-58
2021/06/24 06:57:54;;;;;;;4.80;4.50;;;;;;;21.65;87.34;96419.34;5076149;28;20200;-58
2021/06/24 07:00:20;;;;;;;4.07;3.77;;;;;;;21.75;86.98;96421.06;5076033;28;20409;-58
2021/06/24 07:02:45;;;;;;;4.43;4.20;;;;;;;21.75;86.52;96415.72;5075762;28;20458;-58
2021/06/24 07:05:11;;;;;;;4.40;4.10;;;;;;;21.68;85.17;96409.97;5083899;28;20691;-57
2021/06/24 07:07:36;;;;;;;3.37;3.17;;;;;;;21.74;84.62;96409.56;5096040;28;20176;-58
2021/06/24 07:10:03;;;;;;;3.77;3.57;;;;;;;21.81;84.58;96412.69;5096267;28;20248;-58
2021/06/24 07:12:28;;;;;;;4.07;3.77;;;;;;;21.82;84.51;96406.25;5095647;28;20219;-58
2021/06/24 07:14:54;;;;;;;3.20;3.00;;;;;;;21.71;83.58;96407.47;5095644;28;20421;-57
2021/06/24 07:17:19;;;;;;;3.33;3.13;;;;;;;21.82;84.24;96411.59;5095875;28;20184;-57
2021/06/24 07:19:45;;;;;;;3.77;3.57;;;;;;;21.94;85.32;96403.88;5088827;28;20167;-57
2021/06/24 07:22:11;;;;;;;4.27;3.53;;;;;;;21.99;85.70;96401.13;5075253;28;20174;-58
2021/06/24 07:24:36;;;;;;;3.90;3.70;;;;;;;21.98;84.90;96406.75;5075350;28;20449;-59
2021/06/24 07:27:02;;;;;;;3.20;3.00;;;;;;;22.00;84.70;96409.91;5075521;28;20261;-58
2021/06/24 07:29:27;;;;;;;3.87;3.40;;;;;;;22.21;83.04;96411.13;5075138;28;20624;-59
2021/06/24 07:31:53;;;;;;;4.00;3.80;;;;;;;21.97;82.52;96415.88;5074987;28;20232;-59
2021/06/24 07:34:18;;;;;;;3.20;3.00;;;;;;;21.98;81.07;96410.22;5080361;28;20200;-58
2021/06/24 07:36:45;;;;;;;3.03;2.83;;;;;;;22.15;82.99;96412.31;5092834;28;20197;-58
2021/06/24 07:39:11;;;;;;;3.47;3.20;;;;;;;22.04;82.60;96405.56;5075453;28;20186;-57
2021/06/24 07:41:36;;;;;;;3.13;2.87;;;;;;;22.29;83.91;96416.59;5074826;28;20454;-58
2021/06/24 07:44:02;;;;;;;3.37;3.17;;;;;;;22.46;83.50;96416.75;5074762;28;20202;-58
2021/06/24 07:46:27;;;;;;;3.47;3.27;;;;;;;22.59;83.63;96425.13;5095933;28;20632;-58
2021/06/24 07:48:53;;;;;;;3.00;2.80;;;;;;;22.68;83.43;96415.28;5095533;28;20177;-58
2021/06/24 07:51:19;;;;;;;3.53;3.23;;;;;;;22.75;82.00;96421.81;5094968;28;20177;-58
2021/06/24 07:53:44;;;;;;;3.10;2.90;;;;;;;22.84;80.71;96419.22;5074606;28;20241;-58
2021/06/24 07:56:14;;;;;;;3.40;3.10;;;;;;;22.82;79.91;96421.41;5075042;28;20413;-58
2021/06/24 07:58:40;;;;;;;3.23;3.13;;;;;;;22.76;79.33;96420.72;5074709;28;20255;-58
2021/06/24 08:01:07;;;;;;;3.73;3.43;;;;;;;22.82;78.10;96422.19;5074987;28;20487;-59
2021/06/24 08:03:34;;;;;;;4.00;3.60;;;;;;;22.91;80.08;96424.94;5056511;28;20197;-59
2021/06/24 08:06:00;;;;;;;3.20;3.00;;;;;;;22.99;79.79;96421.56;5074725;28;20464;-58
2021/06/24 08:08:26;;;;;;;4.07;3.33;;;;;;;23.20;79.01;96415.44;5094737;28;20894;-59
2021/06/24 08:10:51;;;;;;;6.73;3.50;;;;;;;23.35;78.72;96425.03;5094807;28;20656;-59
2021/06/24 08:13:18;;;;;;;3.10;2.90;;;;;;;23.34;77.03;96432.28;5094187;28;20218;-59
2021/06/24 08:15:45;;;;;;;3.20;3.00;;;;;;;23.22;77.22;96423.97;5094640;28;20405;-58
2021/06/24 08:18:10;;;;;;;3.77;3.47;;;;;;;23.17;76.34;96429.44;5076474;28;20216;-59
2021/06/24 08:20:36;;;;;;;2.83;2.67;;;;;;;23.03;78.93;96435.94;5095026;28;20440;-58
2021/06/24 08:23:01;;;;;;;3.33;3.13;;;;;;;23.12;77.81;96436.78;5072599;28;20281;-58
2021/06/24 08:25:27;;;;;;;3.53;3.33;;;;;;;22.75;77.73;96442.47;5070715;28;20573;-58
2021/06/24 08:27:52;;;;;;;3.30;3.10;;;;;;;22.77;77.98;96448.31;5070766;28;20174;-58
2021/06/24 08:30:20;;;;;;;3.20;2.90;;;;;;;22.40;80.23;96452.78;5052791;28;20197;-59
2021/06/24 08:32:46;;;;;;;3.47;3.27;;;;;;;22.58;79.53;96450.31;5070433;28;20190;-57
2021/06/24 08:35:12;;;;;;;4.00;3.70;;;;;;;22.40;78.56;96454.66;5070184;28;20483;-58
2021/06/24 08:37:39;;;;;;;3.37;3.17;;;;;;;22.30;78.61;96461.00;5087912;28;20428;-60
2021/06/24 08:40:07;;;;;;;3.40;3.17;;;;;;;22.38;78.89;96459.53;5090990;28;20624;-60
2021/06/24 08:42:33;;;;;;;3.67;3.37;;;;;;;22.04;80.19;96465.25;5090402;28;20531;-59
2021/06/24 08:45:01;;;;;;;3.00;2.80;;;;;;;21.98;79.82;96463.75;5090483;28;20456;-60
2021/06/24 08:47:31;;;;;;;3.00;2.80;;;;;;;21.71;80.02;96463.66;5090229;28;20813;-59
2021/06/24 08:49:58;;;;;;;3.30;3.10;;;;;;;21.73;80.04;96458.00;5090830;28;20412;-60
2021/06/24 08:52:23;;;;;;;3.27;3.07;;;;;;;21.83;82.24;96453.31;5081251;28;20452;-59
2021/06/24 08:54:49;;;;;;;3.70;3.33;;;;;;;22.25;80.04;96463.78;5079993;28;20485;-60
2021/06/24 08:57:15;;;;;;;3.77;3.50;;;;;;;22.36;78.97;96459.81;5070230;28;20239;-60
2021/06/24 08:59:41;;;;;;;3.67;3.30;;;;;;;22.49;81.28;96459.03;5069837;28;20177;-59
2021/06/24 09:02:10;;;;;;;3.40;3.13;;;;;;;22.83;80.37;96457.84;5069784;28;20417;-59
2021/06/24 09:04:35;;;;;;;3.30;3.10;;;;;;;22.52;74.88;96451.50;5070096;28;20255;-60
2021/06/24 09:07:09;;;;;;;2.50;2.40;;;;;;;22.62;76.96;96459.34;5070299;28;21113;-59
2021/06/24 09:09:37;;;;;;;2.70;2.60;;;;;;;22.76;74.50;96455.56;5072672;28;20261;-59
2021/06/24 09:12:05;;;;;;;2.77;2.53;;;;;;;22.84;72.31;96460.22;5079103;28;20481;-60
2021/06/24 09:14:51;;;;;;;2.17;2.03;;;;;;;23.06;74.24;96452.22;5090399;28;20435;-60
2021/06/24 09:17:46;;;;;;;2.87;2.67;;;;;;;22.98;73.06;96460.97;5090265;28;20988;-60
2021/06/24 09:20:18;;;;;;;2.50;2.40;;;;;;;23.07;71.51;96463.72;5081324;28;20432;-59
2021/06/24 09:23:16;;;;;;;2.87;2.67;;;;;;;23.01;72.47;96465.72;5089218;28;20424;-59
2021/06/24 09:26:06;;;;;;;2.97;2.77;;;;;;;22.95;73.09;96466.94;5088821;28;20460;-60
2021/06/24 09:28:38;;;;;;;2.73;2.63;;;;;;;22.94;73.31;96473.41;5058772;28;20460;-58
2021/06/24 09:31:04;;;;;;;2.80;2.60;;;;;;;22.79;73.81;96462.22;5073367;28;20483;-61
2021/06/24 09:33:38;;;;;;;2.47;2.27;;;;;;;23.10;75.71;96468.50;5073011;28;20946;-61
2021/06/24 09:36:04;;;;;;;3.40;3.10;;;;;;;23.51;76.92;96465.69;5073590;28;20170;-61
2021/06/24 09:38:40;;;;;;;3.10;2.73;;;;;;;23.77;74.63;96469.38;5075723;28;20424;-61
2021/06/24 09:41:14;;;;;;;3.00;2.80;;;;;;;24.01;74.11;96467.16;5093671;28;20166;-61
2021/06/24 09:43:41;;;;;;;2.33;2.10;;;;;;;24.11;72.45;96467.69;5074005;28;21066;-59
2021/06/24 09:46:30;;;;;;;2.30;2.20;;;;;;;23.75;67.92;96463.50;5091496;28;20537;-61
2021/06/24 09:48:59;;;;;;;3.10;2.70;;;;;;;23.96;68.38;96460.00;5092743;28;20873;-61
2021/06/24 09:51:31;;;;;;;3.00;2.80;;;;;;;24.30;73.61;96454.81;5093058;28;20965;-60
2021/06/24 09:53:58;;;;;;;3.07;2.87;;;;;;;24.45;70.12;96453.59;5093382;28;20427;-58
2021/06/24 09:56:27;;;;;;;2.87;2.63;;;;;;;24.63;71.99;96459.81;5090103;28;20439;-60
2021/06/24 09:58:54;;;;;;;2.40;2.30;;;;;;;24.78;69.31;96456.72;5088082;28;20517;-59
2021/06/24 10:01:47;;;;;;;2.37;2.27;;;;;;;24.59;70.49;96445.41;5092347;28;20424;-60
2021/06/24 10:04:31;;;;;;;2.60;2.40;;;;;;;24.43;74.74;96445.84;5089386;28;20981;-58
2021/06/24 10:07:01;;;;;;;2.00;1.90;;;;;;;24.93;71.22;96446.31;5092947;28;20423;-59
2021/06/24 10:09:28;;;;;;;2.23;2.10;;;;;;;25.09;66.81;96447.44;5095821;28;20407;-59
2021/06/24 10:11:54;;;;;;;2.30;2.20;;;;;;;25.21;68.69;96450.28;5095708;28;20931;-60
2021/06/24 10:14:20;;;;;;;2.60;2.50;;;;;;;25.03;66.11;96455.97;5090911;28;20523;-60
2021/06/24 10:16:50;;;;;;;2.50;2.30;;;;;;;24.67;64.73;96452.72;5076568;28;20502;-58
2021/06/24 10:19:17;;;;;;;1.70;1.60;;;;;;;24.35;60.07;96457.34;5076539;28;20440;-59
2021/06/24 10:21:49;;;;;;;1.70;1.60;;;;;;;24.11;61.38;96456.97;5087159;28;20439;-58
2021/06/24 10:24:19;;;;;;;1.77;1.50;;;;;;;24.31;63.59;96458.31;5096629;28;20451;-60
2021/06/24 10:26:50;;;;;;;4.53;2.90;;;;;;;24.17;65.34;96455.69;5097440;28;20945;-60
2021/06/24 10:29:17;;;;;;;2.43;2.23;;;;;;;24.28;69.73;96454.31;5091158;28;20827;-59
2021/06/24 10:31:48;;;;;;;2.53;2.33;;;;;;;24.00;66.97;96462.84;5076417;28;20428;-59
2021/06/24 10:34:18;;;;;;;2.27;2.07;;;;;;;24.09;67.90;96453.78;5076633;28;20432;-58
2021/06/24 10:37:12;;;;;;;2.30;2.20;;;;;;;23.99;67.18;96454.00;5076622;28;20412;-60
2021/06/24 10:39:39;;;;;;;3.20;2.70;;;;;;;23.88;69.82;96457.28;5076220;28;20409;-59
2021/06/24 10:42:04;;;;;;;2.13;2.03;;;;;;;23.78;67.67;96452.94;5076024;28;20420;-58
2021/06/24 10:44:41;;;;;;;2.10;2.00;;;;;;;23.80;68.18;96456.13;5086961;28;20463;-58
2021/06/24 10:47:07;;;;;;;2.07;1.97;;;;;;;23.63;68.24;96447.94;5096665;28;20697;-58
2021/06/24 10:49:33;;;;;;;2.23;2.10;;;;;;;23.81;68.89;96443.47;5096616;28;20408;-60
2021/06/24 10:52:24;;;;;;;2.33;2.13;;;;;;;23.86;69.90;96451.41;5096213;28;20197;-59
2021/06/24 10:54:49;;;;;;;2.03;1.93;;;;;;;23.73;67.83;96444.22;5096424;28;20413;-59
2021/06/24 10:57:38;;;;;;;2.30;2.20;;;;;;;23.76;66.50;96439.03;5096328;28;20443;-60
2021/06/24 11:00:35;;;;;;;2.43;2.33;;;;;;;23.89;67.22;96426.63;5077851;28;20181;-59
2021/06/24 11:03:03;;;;;;;2.10;2.00;;;;;;;23.97;69.31;96420.53;5075426;28;20417;-58
2021/06/24 11:05:49;;;;;;;2.40;1.70;;;;;;;24.08;65.67;96425.31;5075891;28;20452;-59
2021/06/24 11:08:28;;;;;;;1.70;1.60;;;;;;;24.26;68.60;96431.56;5095625;28;20404;-59
2021/06/24 11:11:00;;;;;;;1.90;1.80;;;;;;;24.10;65.99;96430.38;5095942;28;20451;-59
2021/06/24 11:13:35;;;;;;;1.50;1.40;;;;;;;23.62;63.41;96426.78;5088982;28;20518;-58
2021/06/24 11:16:07;;;;;;;1.50;1.40;;;;;;;23.78;62.82;96436.84;5091498;28;20439;-60
2021/06/24 11:18:35;;;;;;;1.63;1.53;;;;;;;23.71;62.34;96419.59;5075601;28;20413;-59
2021/06/24 11:21:03;;;;;;;2.80;1.50;;;;;;;23.68;61.63;96425.56;5075739;28;20409;-60
2021/06/24 11:23:35;;;;;;;2.10;1.87;;;;;;;23.57;64.10;96408.13;5075631;28;20767;-59
2021/06/24 11:26:08;;;;;;;1.77;1.67;;;;;;;23.88;62.93;96401.66;5093354;28;20467;-59
2021/06/24 11:29:01;;;;;;;1.40;1.30;;;;;;;24.34;65.91;96396.69;5088189;28;20547;-57
2021/06/24 11:31:33;;;;;;;1.73;1.63;;;;;;;23.97;59.82;96407.09;5088507;28;20493;-57
2021/06/24 11:34:17;;;;;;;1.70;1.60;;;;;;;24.12;61.78;96402.13;5094167;28;20452;-59